sensor_id;sensor_type;location;lat;lon;timestamp;pressure;altitude;pressure_sealevel;temperature;humidity
74905;BME280;63465;50.862;6.220;2023-03-11T00:00:51;99012.94;;;1.47;79.75
74905;BME280;63465;50.862;6.220;2023-03-11T00:03:19;99007.78;;;1.43;79.98
74905;BME280;63465;50.862;6.220;2023-03-11T00:05:47;99014.81;;;1.41;80.28
74905;BME280;63465;50.862;6.220;2023-03-11T00:08:16;99013.94;;;1.42;80.53
74905;BME280;63465;50.862;6.220;2023-03-11T00:10:45;99018.09;;;1.50;80.16
74905;BME280;63465;50.862;6.220;2023-03-11T00:13:14;99024.28;;;1.47;79.54
74905;BME280;63465;50.862;6.220;2023-03-11T00:15:42;99028.84;;;1.37;79.89
74905;BME280;63465;50.862;6.220;2023-03-11T00:18:11;99026.22;;;1.37;80.27
74905;BME280;63465;50.862;6.220;2023-03-11T00:20:39;99025.44;;;1.34;79.39
74905;BME280;63465;50.862;6.220;2023-03-11T00:23:07;99026.31;;;1.33;79.12
74905;BME280;63465;50.862;6.220;2023-03-11T00:25:36;99024.94;;;1.16;79.79
74905;BME280;63465;50.862;6.220;2023-03-11T00:28:03;99015.34;;;1.18;79.09
74905;BME280;63465;50.862;6.220;2023-03-11T00:30:31;99033.69;;;1.15;79.54
74905;BME280;63465;50.862;6.220;2023-03-11T00:32:59;99030.44;;;1.02;79.28
74905;BME280;63465;50.862;6.220;2023-03-11T00:35:29;99030.31;;;1.09;79.17
74905;BME280;63465;50.862;6.220;2023-03-11T00:37:58;99038.31;;;1.01;78.96
74905;BME280;63465;50.862;6.220;2023-03-11T00:40:28;99038.22;;;1.05;79.06
74905;BME280;63465;50.862;6.220;2023-03-11T00:42:56;99041.91;;;0.97;78.14
74905;BME280;63465;50.862;6.220;2023-03-11T00:45:23;99045.69;;;0.82;78.71
74905;BME280;63465;50.862;6.220;2023-03-11T00:47:51;99048.03;;;0.96;78.64
74905;BME280;63465;50.862;6.220;2023-03-11T00:50:20;99041.88;;;0.98;78.35
74905;BME280;63465;50.862;6.220;2023-03-11T00:52:49;99052.47;;;0.92;77.97
74905;BME280;63465;50.862;6.220;2023-03-11T00:55:19;99051.63;;;0.88;78.51
74905;BME280;63465;50.862;6.220;2023-03-11T00:57:46;99055.13;;;0.89;78.27
74905;BME280;63465;50.862;6.220;2023-03-11T01:00:14;99057.78;;;0.87;77.94
74905;BME280;63465;50.862;6.220;2023-03-11T01:02:42;99056.13;;;0.82;78.12
74905;BME280;63465;50.862;6.220;2023-03-11T01:05:09;99062.28;;;0.79;78.30
74905;BME280;63465;50.862;6.220;2023-03-11T01:07:37;99063.03;;;0.86;78.59
74905;BME280;63465;50.862;6.220;2023-03-11T01:10:06;99066.53;;;0.85;78.61
74905;BME280;63465;50.862;6.220;2023-03-11T01:12:33;99075.28;;;0.81;78.59
74905;BME280;63465;50.862;6.220;2023-03-11T01:15:00;99082.34;;;0.77;78.37
74905;BME280;63465;50.862;6.220;2023-03-11T01:17:27;99084.97;;;0.76;78.03
74905;BME280;63465;50.862;6.220;2023-03-11T01:19:54;99083.31;;;0.71;78.70
74905;BME280;63465;50.862;6.220;2023-03-11T01:22:21;99084.09;;;0.77;79.08
74905;BME280;63465;50.862;6.220;2023-03-11T01:24:47;99081.66;;;0.67;79.08
74905;BME280;63465;50.862;6.220;2023-03-11T01:27:15;99080.75;;;0.68;78.63
74905;BME280;63465;50.862;6.220;2023-03-11T01:29:42;99087.88;;;0.60;79.29
74905;BME280;63465;50.862;6.220;2023-03-11T01:32:09;99083.72;;;0.50;79.23
74905;BME280;63465;50.862;6.220;2023-03-11T01:34:35;99083.56;;;0.58;79.76
74905;BME280;63465;50.862;6.220;2023-03-11T01:37:02;99088.94;;;0.48;79.26
74905;BME280;63465;50.862;6.220;2023-03-11T01:39:29;99097.53;;;0.55;79.36
74905;BME280;63465;50.862;6.220;2023-03-11T01:41:56;99103.63;;;0.56;79.12
74905;BME280;63465;50.862;6.220;2023-03-11T01:44:24;99099.16;;;0.62;79.27
74905;BME280;63465;50.862;6.220;2023-03-11T01:50:11;99101.22;;;0.45;79.64
74905;BME280;63465;50.862;6.220;2023-03-11T01:52:40;99102.25;;;0.34;80.56
74905;BME280;63465;50.862;6.220;2023-03-11T01:55:08;99113.50;;;0.37;81.20
74905;BME280;63465;50.862;6.220;2023-03-11T01:57:37;99108.94;;;0.51;80.90
74905;BME280;63465;50.862;6.220;2023-03-11T02:00:12;99108.06;;;0.49;81.17
74905;BME280;63465;50.862;6.220;2023-03-11T02:02:42;99102.13;;;0.42;81.61
74905;BME280;63465;50.862;6.220;2023-03-11T02:05:12;99098.66;;;0.42;82.07
74905;BME280;63465;50.862;6.220;2023-03-11T02:07:39;99099.41;;;0.48;82.45
74905;BME280;63465;50.862;6.220;2023-03-11T02:10:10;99096.53;;;0.62;81.73
74905;BME280;63465;50.862;6.220;2023-03-11T02:12:38;99097.63;;;0.49;82.35
74905;BME280;63465;50.862;6.220;2023-03-11T02:15:08;99095.06;;;0.46;82.63
74905;BME280;63465;50.862;6.220;2023-03-11T02:17:37;99095.97;;;0.46;82.29
74905;BME280;63465;50.862;6.220;2023-03-11T02:20:13;99099.38;;;0.50;83.20
74905;BME280;63465;50.862;6.220;2023-03-11T02:22:42;99099.69;;;0.31;83.60
74905;BME280;63465;50.862;6.220;2023-03-11T02:25:16;99104.91;;;0.31;83.73
74905;BME280;63465;50.862;6.220;2023-03-11T02:27:49;99107.31;;;0.44;83.87
74905;BME280;63465;50.862;6.220;2023-03-11T02:30:19;99109.13;;;0.40;83.75
74905;BME280;63465;50.862;6.220;2023-03-11T02:32:47;99110.81;;;0.41;83.54
74905;BME280;63465;50.862;6.220;2023-03-11T02:35:16;99112.72;;;0.33;83.90
74905;BME280;63465;50.862;6.220;2023-03-11T02:37:44;99108.19;;;0.43;83.67
74905;BME280;63465;50.862;6.220;2023-03-11T02:40:30;99109.91;;;0.44;83.11
74905;BME280;63465;50.862;6.220;2023-03-11T02:43:02;99096.06;;;0.40;83.67
74905;BME280;63465;50.862;6.220;2023-03-11T02:45:31;99102.94;;;0.44;83.59
74905;BME280;63465;50.862;6.220;2023-03-11T02:47:59;99107.53;;;0.30;84.25
74905;BME280;63465;50.862;6.220;2023-03-11T02:50:27;99099.34;;;0.51;83.85
74905;BME280;63465;50.862;6.220;2023-03-11T02:52:54;99106.44;;;0.43;83.40
74905;BME280;63465;50.862;6.220;2023-03-11T02:55:21;99108.38;;;0.32;84.13
74905;BME280;63465;50.862;6.220;2023-03-11T02:57:48;99106.84;;;0.20;84.57
74905;BME280;63465;50.862;6.220;2023-03-11T03:00:17;99107.72;;;0.19;84.19
74905;BME280;63465;50.862;6.220;2023-03-11T03:02:52;99114.78;;;0.14;84.64
74905;BME280;63465;50.862;6.220;2023-03-11T03:05:21;99110.41;;;0.14;84.48
74905;BME280;63465;50.862;6.220;2023-03-11T03:07:49;99115.63;;;0.14;85.08
74905;BME280;63465;50.862;6.220;2023-03-11T03:10:18;99109.97;;;0.41;84.07
74905;BME280;63465;50.862;6.220;2023-03-11T03:12:45;99109.31;;;0.29;83.81
74905;BME280;63465;50.862;6.220;2023-03-11T03:15:12;99116.47;;;0.15;84.83
74905;BME280;63465;50.862;6.220;2023-03-11T03:17:41;99122.34;;;0.29;84.90
74905;BME280;63465;50.862;6.220;2023-03-11T03:20:09;99123.84;;;0.43;84.36
74905;BME280;63465;50.862;6.220;2023-03-11T03:22:41;99131.66;;;0.44;84.35
74905;BME280;63465;50.862;6.220;2023-03-11T03:25:10;99131.69;;;0.41;84.49
74905;BME280;63465;50.862;6.220;2023-03-11T03:27:37;99130.94;;;0.34;84.33
74905;BME280;63465;50.862;6.220;2023-03-11T03:30:06;99135.44;;;0.26;84.66
74905;BME280;63465;50.862;6.220;2023-03-11T03:32:34;99141.69;;;0.16;84.99
74905;BME280;63465;50.862;6.220;2023-03-11T03:35:04;99134.56;;;0.26;84.64
74905;BME280;63465;50.862;6.220;2023-03-11T03:37:51;99133.66;;;0.28;84.80
74905;BME280;63465;50.862;6.220;2023-03-11T03:40:20;99147.72;;;0.18;84.90
74905;BME280;63465;50.862;6.220;2023-03-11T03:42:46;99144.41;;;0.10;85.30
74905;BME280;63465;50.862;6.220;2023-03-11T03:45:13;99154.81;;;0.10;85.12
74905;BME280;63465;50.862;6.220;2023-03-11T03:47:40;99148.66;;;0.15;85.43
74905;BME280;63465;50.862;6.220;2023-03-11T03:50:10;99145.88;;;0.28;84.72
74905;BME280;63465;50.862;6.220;2023-03-11T03:52:40;99152.13;;;0.16;85.08
74905;BME280;63465;50.862;6.220;2023-03-11T03:55:08;99152.94;;;0.18;85.13
74905;BME280;63465;50.862;6.220;2023-03-11T03:57:35;99156.66;;;0.05;85.45
74905;BME280;63465;50.862;6.220;2023-03-11T04:00:04;99164.44;;;0.08;85.79
74905;BME280;63465;50.862;6.220;2023-03-11T04:02:39;99150.66;;;-0.04;86.19
74905;BME280;63465;50.862;6.220;2023-03-11T04:05:11;99153.16;;;0.06;86.08
74905;BME280;63465;50.862;6.220;2023-03-11T04:07:40;99156.47;;;0.17;85.82
74905;BME280;63465;50.862;6.220;2023-03-11T04:10:08;99147.78;;;0.15;86.13
74905;BME280;63465;50.862;6.220;2023-03-11T04:12:35;99155.75;;;0.06;86.26
74905;BME280;63465;50.862;6.220;2023-03-11T04:15:02;99160.81;;;0.16;86.42
74905;BME280;63465;50.862;6.220;2023-03-11T04:17:29;99170.47;;;0.10;86.57
74905;BME280;63465;50.862;6.220;2023-03-11T04:19:57;99164.66;;;-0.09;87.09
74905;BME280;63465;50.862;6.220;2023-03-11T04:22:25;99163.59;;;0.04;86.93
74905;BME280;63465;50.862;6.220;2023-03-11T04:24:52;99173.50;;;-0.18;88.12
74905;BME280;63465;50.862;6.220;2023-03-11T04:27:18;99162.13;;;-0.14;88.26
74905;BME280;63465;50.862;6.220;2023-03-11T04:29:45;99170.94;;;-0.23;88.73
74905;BME280;63465;50.862;6.220;2023-03-11T04:32:12;99169.78;;;-0.03;88.29
74905;BME280;63465;50.862;6.220;2023-03-11T04:34:41;99176.81;;;-0.07;88.22
74905;BME280;63465;50.862;6.220;2023-03-11T04:37:09;99164.69;;;-0.12;88.19
74905;BME280;63465;50.862;6.220;2023-03-11T04:39:37;99169.78;;;-0.03;88.40
74905;BME280;63465;50.862;6.220;2023-03-11T04:42:04;99172.31;;;0.05;88.42
74905;BME280;63465;50.862;6.220;2023-03-11T04:44:33;99166.16;;;0.07;88.17
74905;BME280;63465;50.862;6.220;2023-03-11T04:47:01;99176.53;;;0.12;88.18
74905;BME280;63465;50.862;6.220;2023-03-11T04:49:28;99179.13;;;0.12;88.16
74905;BME280;63465;50.862;6.220;2023-03-11T04:51:55;99166.22;;;0.04;88.30
74905;BME280;63465;50.862;6.220;2023-03-11T04:54:22;99161.81;;;0.08;88.77
74905;BME280;63465;50.862;6.220;2023-03-11T04:56:51;99168.00;;;0.02;88.31
74905;BME280;63465;50.862;6.220;2023-03-11T04:59:18;99178.72;;;-0.18;89.00
74905;BME280;63465;50.862;6.220;2023-03-11T05:01:47;99183.63;;;0.04;88.93
74905;BME280;63465;50.862;6.220;2023-03-11T05:04:13;99185.72;;;-0.23;89.21
74905;BME280;63465;50.862;6.220;2023-03-11T05:06:41;99190.69;;;-0.06;89.36
74905;BME280;63465;50.862;6.220;2023-03-11T05:09:09;99187.28;;;-0.11;89.52
74905;BME280;63465;50.862;6.220;2023-03-11T05:11:38;99193.38;;;-0.11;89.43
74905;BME280;63465;50.862;6.220;2023-03-11T05:14:06;99194.38;;;-0.20;89.57
74905;BME280;63465;50.862;6.220;2023-03-11T05:16:33;99192.81;;;-0.33;89.89
74905;BME280;63465;50.862;6.220;2023-03-11T05:19:00;99201.16;;;-0.09;89.41
74905;BME280;63465;50.862;6.220;2023-03-11T05:21:47;99211.63;;;-0.11;89.29
74905;BME280;63465;50.862;6.220;2023-03-11T05:24:13;99207.38;;;-0.18;89.63
74905;BME280;63465;50.862;6.220;2023-03-11T05:26:40;99213.34;;;-0.10;89.45
74905;BME280;63465;50.862;6.220;2023-03-11T05:29:08;99213.50;;;-0.22;89.51
74905;BME280;63465;50.862;6.220;2023-03-11T05:31:35;99215.28;;;-0.23;89.96
74905;BME280;63465;50.862;6.220;2023-03-11T05:34:02;99209.06;;;-0.14;89.60
74905;BME280;63465;50.862;6.220;2023-03-11T05:36:29;99210.88;;;-0.21;89.69
74905;BME280;63465;50.862;6.220;2023-03-11T05:38:56;99217.97;;;-0.29;89.77
74905;BME280;63465;50.862;6.220;2023-03-11T05:41:22;99225.63;;;-0.18;89.75
74905;BME280;63465;50.862;6.220;2023-03-11T05:43:49;99229.16;;;-0.22;89.73
74905;BME280;63465;50.862;6.220;2023-03-11T05:46:18;99230.09;;;-0.29;89.90
74905;BME280;63465;50.862;6.220;2023-03-11T05:48:45;99220.38;;;-0.15;89.81
74905;BME280;63465;50.862;6.220;2023-03-11T05:51:12;99230.84;;;-0.18;89.36
74905;BME280;63465;50.862;6.220;2023-03-11T05:53:41;99227.44;;;-0.25;89.49
74905;BME280;63465;50.862;6.220;2023-03-11T05:56:13;99233.66;;;-0.33;89.78
74905;BME280;63465;50.862;6.220;2023-03-11T05:58:40;99230.97;;;-0.26;89.76
74905;BME280;63465;50.862;6.220;2023-03-11T06:01:08;99233.59;;;-0.27;89.60
74905;BME280;63465;50.862;6.220;2023-03-11T06:03:37;99241.41;;;-0.29;89.46
74905;BME280;63465;50.862;6.220;2023-03-11T06:06:05;99242.47;;;-0.44;90.42
74905;BME280;63465;50.862;6.220;2023-03-11T06:08:33;99237.09;;;-0.31;89.85
74905;BME280;63465;50.862;6.220;2023-03-11T06:11:01;99244.84;;;-0.25;89.56
74905;BME280;63465;50.862;6.220;2023-03-11T06:13:28;99247.66;;;-0.42;89.82
74905;BME280;63465;50.862;6.220;2023-03-11T06:15:55;99245.03;;;-0.41;90.15
74905;BME280;63465;50.862;6.220;2023-03-11T06:18:23;99252.75;;;-0.31;89.42
74905;BME280;63465;50.862;6.220;2023-03-11T06:20:52;99251.88;;;-0.30;89.78
74905;BME280;63465;50.862;6.220;2023-03-11T06:23:19;99247.28;;;-0.13;89.63
74905;BME280;63465;50.862;6.220;2023-03-11T06:25:54;99256.09;;;-0.23;89.35
74905;BME280;63465;50.862;6.220;2023-03-11T06:28:21;99251.63;;;-0.10;89.07
74905;BME280;63465;50.862;6.220;2023-03-11T06:30:48;99248.09;;;-0.09;88.93
74905;BME280;63465;50.862;6.220;2023-03-11T06:33:15;99257.69;;;-0.11;89.15
74905;BME280;63465;50.862;6.220;2023-03-11T06:35:42;99266.41;;;-0.14;88.90
74905;BME280;63465;50.862;6.220;2023-03-11T06:38:10;99273.50;;;-0.24;89.15
74905;BME280;63465;50.862;6.220;2023-03-11T06:40:37;99272.78;;;-0.37;89.91
74905;BME280;63465;50.862;6.220;2023-03-11T06:43:04;99282.09;;;-0.15;89.95
74905;BME280;63465;50.862;6.220;2023-03-11T06:45:33;99286.16;;;0.07;89.22
74905;BME280;63465;50.862;6.220;2023-03-11T06:48:00;99285.25;;;0.10;88.97
74905;BME280;63465;50.862;6.220;2023-03-11T06:50:28;99293.78;;;0.21;88.31
74905;BME280;63465;50.862;6.220;2023-03-11T06:52:58;99295.78;;;0.02;88.60
74905;BME280;63465;50.862;6.220;2023-03-11T06:55:27;99297.56;;;-0.03;89.00
74905;BME280;63465;50.862;6.220;2023-03-11T06:57:56;99304.44;;;0.06;89.11
74905;BME280;63465;50.862;6.220;2023-03-11T07:00:24;99308.84;;;0.01;88.87
74905;BME280;63465;50.862;6.220;2023-03-11T07:02:56;99314.94;;;-0.01;88.90
74905;BME280;63465;50.862;6.220;2023-03-11T07:05:24;99311.97;;;0.27;88.30
74905;BME280;63465;50.862;6.220;2023-03-11T07:07:55;99323.53;;;0.09;88.34
74905;BME280;63465;50.862;6.220;2023-03-11T07:10:24;99327.81;;;0.13;88.57
74905;BME280;63465;50.862;6.220;2023-03-11T07:12:52;99325.25;;;0.09;88.36
74905;BME280;63465;50.862;6.220;2023-03-11T07:15:19;99329.63;;;0.08;88.64
74905;BME280;63465;50.862;6.220;2023-03-11T07:17:45;99339.81;;;0.27;88.75
74905;BME280;63465;50.862;6.220;2023-03-11T07:20:12;99336.13;;;0.43;87.89
74905;BME280;63465;50.862;6.220;2023-03-11T07:22:39;99346.66;;;0.39;87.74
74905;BME280;63465;50.862;6.220;2023-03-11T07:25:06;99349.28;;;0.35;87.85
74905;BME280;63465;50.862;6.220;2023-03-11T07:27:33;99354.72;;;0.20;88.43
74905;BME280;63465;50.862;6.220;2023-03-11T07:30:01;99354.41;;;0.45;88.13
74905;BME280;63465;50.862;6.220;2023-03-11T07:32:27;99355.50;;;0.25;88.15
74905;BME280;63465;50.862;6.220;2023-03-11T07:34:54;99359.63;;;0.45;88.40
74905;BME280;63465;50.862;6.220;2023-03-11T07:37:21;99363.69;;;0.63;86.83
74905;BME280;63465;50.862;6.220;2023-03-11T07:39:47;99375.06;;;0.60;87.35
74905;BME280;63465;50.862;6.220;2023-03-11T07:42:14;99376.91;;;0.52;87.03
74905;BME280;63465;50.862;6.220;2023-03-11T07:44:41;99371.69;;;0.52;87.29
74905;BME280;63465;50.862;6.220;2023-03-11T07:47:09;99368.78;;;0.75;86.78
74905;BME280;63465;50.862;6.220;2023-03-11T07:49:37;99372.97;;;0.84;85.64
74905;BME280;63465;50.862;6.220;2023-03-11T07:52:04;99382.34;;;0.99;85.73
74905;BME280;63465;50.862;6.220;2023-03-11T07:54:32;99382.25;;;1.05;85.09
74905;BME280;63465;50.862;6.220;2023-03-11T07:56:58;99383.34;;;0.88;84.32
74905;BME280;63465;50.862;6.220;2023-03-11T07:59:25;99392.97;;;0.88;84.97
74905;BME280;63465;50.862;6.220;2023-03-11T08:01:52;99387.41;;;1.10;84.65
74905;BME280;63465;50.862;6.220;2023-03-11T08:04:20;99388.34;;;1.04;85.05
74905;BME280;63465;50.862;6.220;2023-03-11T08:06:47;99387.16;;;1.25;83.16
74905;BME280;63465;50.862;6.220;2023-03-11T08:09:14;99388.78;;;1.32;83.50
74905;BME280;63465;50.862;6.220;2023-03-11T08:11:40;99382.63;;;1.36;83.13
74905;BME280;63465;50.862;6.220;2023-03-11T08:14:07;99391.34;;;1.37;83.01
74905;BME280;63465;50.862;6.220;2023-03-11T08:16:34;99391.25;;;1.41;82.06
74905;BME280;63465;50.862;6.220;2023-03-11T08:19:01;99393.56;;;1.60;81.38
74905;BME280;63465;50.862;6.220;2023-03-11T08:21:29;99396.09;;;1.65;80.86
74905;BME280;63465;50.862;6.220;2023-03-11T08:23:57;99399.50;;;1.68;79.81
74905;BME280;63465;50.862;6.220;2023-03-11T08:26:25;99401.72;;;1.90;80.09
74905;BME280;63465;50.862;6.220;2023-03-11T08:28:53;99399.09;;;1.91;78.35
74905;BME280;63465;50.862;6.220;2023-03-11T08:31:21;99392.28;;;1.83;76.88
74905;BME280;63465;50.862;6.220;2023-03-11T08:33:49;99390.44;;;1.88;75.15
74905;BME280;63465;50.862;6.220;2023-03-11T08:36:17;99393.97;;;1.85;76.55
74905;BME280;63465;50.862;6.220;2023-03-11T08:38:45;99393.69;;;2.02;74.07
74905;BME280;63465;50.862;6.220;2023-03-11T08:41:13;99393.34;;;2.19;75.32
74905;BME280;63465;50.862;6.220;2023-03-11T08:43:40;99400.25;;;2.22;76.15
74905;BME280;63465;50.862;6.220;2023-03-11T08:46:07;99402.66;;;2.32;74.78
74905;BME280;63465;50.862;6.220;2023-03-11T08:48:35;99393.78;;;2.40;71.07
74905;BME280;63465;50.862;6.220;2023-03-11T08:51:08;99405.34;;;2.29;71.75
74905;BME280;63465;50.862;6.220;2023-03-11T08:53:35;99408.22;;;2.16;70.66
74905;BME280;63465;50.862;6.220;2023-03-11T08:56:03;99401.63;;;2.41;71.24
74905;BME280;63465;50.862;6.220;2023-03-11T08:58:30;99406.66;;;2.50;70.96
74905;BME280;63465;50.862;6.220;2023-03-11T09:00:57;99402.31;;;2.49;69.85
74905;BME280;63465;50.862;6.220;2023-03-11T09:03:24;99395.63;;;2.36;68.15
74905;BME280;63465;50.862;6.220;2023-03-11T09:05:55;99396.69;;;2.26;67.69
74905;BME280;63465;50.862;6.220;2023-03-11T09:08:22;99401.88;;;2.71;69.12
74905;BME280;63465;50.862;6.220;2023-03-11T09:10:49;99395.53;;;2.81;65.96
74905;BME280;63465;50.862;6.220;2023-03-11T09:13:17;99396.91;;;2.98;65.26
74905;BME280;63465;50.862;6.220;2023-03-11T09:15:44;99395.28;;;2.92;67.21
74905;BME280;63465;50.862;6.220;2023-03-11T09:18:11;99403.06;;;2.95;65.77
74905;BME280;63465;50.862;6.220;2023-03-11T09:20:38;99413.34;;;3.04;63.21
74905;BME280;63465;50.862;6.220;2023-03-11T09:23:05;99410.91;;;2.97;64.48
74905;BME280;63465;50.862;6.220;2023-03-11T09:25:32;99403.09;;;2.94;64.10
74905;BME280;63465;50.862;6.220;2023-03-11T09:27:59;99409.13;;;3.35;63.79
74905;BME280;63465;50.862;6.220;2023-03-11T09:30:27;99418.66;;;3.39;64.33
74905;BME280;63465;50.862;6.220;2023-03-11T09:32:53;99426.78;;;3.64;63.93
74905;BME280;63465;50.862;6.220;2023-03-11T09:35:20;99427.72;;;3.96;60.14
74905;BME280;63465;50.862;6.220;2023-03-11T09:37:47;99426.03;;;3.93;59.13
74905;BME280;63465;50.862;6.220;2023-03-11T09:40:15;99439.34;;;3.86;58.88
74905;BME280;63465;50.862;6.220;2023-03-11T09:42:48;99445.78;;;3.38;58.44
74905;BME280;63465;50.862;6.220;2023-03-11T09:45:18;99440.72;;;3.68;59.48
74905;BME280;63465;50.862;6.220;2023-03-11T09:48:01;99439.91;;;3.99;59.53
74905;BME280;63465;50.862;6.220;2023-03-11T09:50:31;99434.13;;;5.10;56.25
74905;BME280;63465;50.862;6.220;2023-03-11T09:53:09;99433.50;;;4.73;50.76
74905;BME280;63465;50.862;6.220;2023-03-11T09:55:42;99424.66;;;6.85;48.46
74905;BME280;63465;50.862;6.220;2023-03-11T09:58:13;99431.78;;;8.13;48.81
74905;BME280;63465;50.862;6.220;2023-03-11T10:00:41;99430.25;;;8.69;43.51
74905;BME280;63465;50.862;6.220;2023-03-11T10:03:20;99445.72;;;8.37;42.02
74905;BME280;63465;50.862;6.220;2023-03-11T10:05:51;99448.94;;;8.04;45.51
74905;BME280;63465;50.862;6.220;2023-03-11T10:08:25;99452.56;;;7.59;45.14
74905;BME280;63465;50.862;6.220;2023-03-11T10:11:02;99457.09;;;7.33;44.31
74905;BME280;63465;50.862;6.220;2023-03-11T10:13:34;99453.53;;;6.88;42.96
74905;BME280;63465;50.862;6.220;2023-03-11T10:16:12;99444.66;;;6.67;43.92
74905;BME280;63465;50.862;6.220;2023-03-11T10:18:51;99440.84;;;6.51;47.55
74905;BME280;63465;50.862;6.220;2023-03-11T10:21:33;99447.28;;;5.92;47.51
74905;BME280;63465;50.862;6.220;2023-03-11T10:24:13;99444.41;;;6.73;46.10
74905;BME280;63465;50.862;6.220;2023-03-11T10:26:45;99447.06;;;8.06;45.30
74905;BME280;63465;50.862;6.220;2023-03-11T10:29:17;99454.09;;;7.64;44.88
74905;BME280;63465;50.862;6.220;2023-03-11T10:31:49;99452.28;;;7.65;43.24
74905;BME280;63465;50.862;6.220;2023-03-11T10:34:25;99452.13;;;7.47;45.84
74905;BME280;63465;50.862;6.220;2023-03-11T10:36:58;99458.16;;;7.29;45.67
74905;BME280;63465;50.862;6.220;2023-03-11T10:39:29;99457.00;;;8.01;45.65
74905;BME280;63465;50.862;6.220;2023-03-11T10:41:59;99448.91;;;8.25;42.22
74905;BME280;63465;50.862;6.220;2023-03-11T10:44:29;99450.75;;;8.02;42.57
74905;BME280;63465;50.862;6.220;2023-03-11T10:46:57;99442.69;;;8.67;41.40
74905;BME280;63465;50.862;6.220;2023-03-11T10:49:26;99444.75;;;7.98;44.62
74905;BME280;63465;50.862;6.220;2023-03-11T10:51:53;99430.53;;;8.21;42.01
74905;BME280;63465;50.862;6.220;2023-03-11T10:54:30;99456.88;;;6.45;48.14
74905;BME280;63465;50.862;6.220;2023-03-11T10:56:58;99452.00;;;6.34;47.25
74905;BME280;63465;50.862;6.220;2023-03-11T10:59:28;99450.88;;;6.41;48.83
74905;BME280;63465;50.862;6.220;2023-03-11T11:01:57;99451.75;;;6.16;49.64
74905;BME280;63465;50.862;6.220;2023-03-11T11:04:33;99458.84;;;6.14;47.48
74905;BME280;63465;50.862;6.220;2023-03-11T11:07:20;99454.97;;;6.73;45.76
74905;BME280;63465;50.862;6.220;2023-03-11T11:09:49;99454.75;;;7.03;43.96
74905;BME280;63465;50.862;6.220;2023-03-11T11:12:35;99461.00;;;7.67;41.33
74905;BME280;63465;50.862;6.220;2023-03-11T11:15:02;99465.75;;;6.91;45.32
74905;BME280;63465;50.862;6.220;2023-03-11T11:17:31;99478.72;;;5.98;45.67
74905;BME280;63465;50.862;6.220;2023-03-11T11:20:01;99479.34;;;6.80;42.77
74905;BME280;63465;50.862;6.220;2023-03-11T11:22:38;99488.47;;;6.21;46.02
74905;BME280;63465;50.862;6.220;2023-03-11T11:25:28;99490.13;;;5.42;48.42
74905;BME280;63465;50.862;6.220;2023-03-11T11:27:56;99471.44;;;5.51;47.47
74905;BME280;63465;50.862;6.220;2023-03-11T11:30:25;99472.00;;;6.39;45.60
74905;BME280;63465;50.862;6.220;2023-03-11T11:32:52;99462.00;;;8.28;40.19
74905;BME280;63465;50.862;6.220;2023-03-11T11:35:23;99448.31;;;11.56;34.19
74905;BME280;63465;50.862;6.220;2023-03-11T11:37:51;99439.97;;;12.68;30.68
74905;BME280;63465;50.862;6.220;2023-03-11T11:40:24;99457.59;;;12.26;32.37
74905;BME280;63465;50.862;6.220;2023-03-11T11:42:53;99458.09;;;9.52;39.94
74905;BME280;63465;50.862;6.220;2023-03-11T11:45:28;99467.84;;;10.23;38.27
74905;BME280;63465;50.862;6.220;2023-03-11T11:47:58;99465.38;;;8.91;38.41
74905;BME280;63465;50.862;6.220;2023-03-11T11:50:33;99465.56;;;8.68;41.77
74905;BME280;63465;50.862;6.220;2023-03-11T11:53:09;99469.09;;;7.18;42.35
74905;BME280;63465;50.862;6.220;2023-03-11T11:55:39;99463.50;;;7.92;40.98
74905;BME280;63465;50.862;6.220;2023-03-11T11:58:08;99457.75;;;8.65;40.22
74905;BME280;63465;50.862;6.220;2023-03-11T12:00:44;99455.72;;;8.90;41.55
74905;BME280;63465;50.862;6.220;2023-03-11T12:03:31;99453.84;;;8.92;39.74
74905;BME280;63465;50.862;6.220;2023-03-11T12:06:11;99442.56;;;9.81;38.53
74905;BME280;63465;50.862;6.220;2023-03-11T12:08:46;99456.00;;;9.22;39.71
74905;BME280;63465;50.862;6.220;2023-03-11T12:11:23;99450.34;;;8.73;38.02
74905;BME280;63465;50.862;6.220;2023-03-11T12:13:57;99460.31;;;8.47;38.03
74905;BME280;63465;50.862;6.220;2023-03-11T12:16:36;99456.94;;;7.80;41.92
74905;BME280;63465;50.862;6.220;2023-03-11T12:19:15;99448.13;;;8.02;39.65
74905;BME280;63465;50.862;6.220;2023-03-11T12:21:56;99448.78;;;8.48;38.23
74905;BME280;63465;50.862;6.220;2023-03-11T12:24:42;99447.28;;;9.57;34.85
74905;BME280;63465;50.862;6.220;2023-03-11T12:27:19;99438.31;;;9.23;37.14
74905;BME280;63465;50.862;6.220;2023-03-11T12:29:50;99442.69;;;8.67;39.60
74905;BME280;63465;50.862;6.220;2023-03-11T12:32:22;99438.13;;;7.88;38.32
74905;BME280;63465;50.862;6.220;2023-03-11T12:34:50;99436.38;;;8.09;40.05
74905;BME280;63465;50.862;6.220;2023-03-11T12:37:20;99439.81;;;8.32;39.34
74905;BME280;63465;50.862;6.220;2023-03-11T12:39:48;99441.94;;;8.63;39.64
74905;BME280;63465;50.862;6.220;2023-03-11T12:42:17;99434.22;;;8.59;38.62
74905;BME280;63465;50.862;6.220;2023-03-11T12:44:45;99447.84;;;7.88;40.80
74905;BME280;63465;50.862;6.220;2023-03-11T12:47:23;99441.31;;;8.58;39.38
74905;BME280;63465;50.862;6.220;2023-03-11T12:49:52;99442.06;;;8.81;38.94
74905;BME280;63465;50.862;6.220;2023-03-11T12:52:23;99449.31;;;7.52;41.19
74905;BME280;63465;50.862;6.220;2023-03-11T13:01:23;99441.38;;;8.15;39.07
74905;BME280;63465;50.862;6.220;2023-03-11T13:04:01;99426.75;;;6.99;41.17
74905;BME280;63465;50.862;6.220;2023-03-11T13:06:59;99432.25;;;7.39;41.20
74905;BME280;63465;50.862;6.220;2023-03-11T13:09:32;99435.06;;;6.88;43.77
74905;BME280;63465;50.862;6.220;2023-03-11T13:11:58;99438.88;;;7.49;40.88
74905;BME280;63465;50.862;6.220;2023-03-11T13:14:28;99428.84;;;6.91;43.49
74905;BME280;63465;50.862;6.220;2023-03-11T13:16:56;99427.00;;;8.23;40.32
74905;BME280;63465;50.862;6.220;2023-03-11T13:19:48;99427.63;;;8.28;38.28
74905;BME280;63465;50.862;6.220;2023-03-11T13:25:40;99419.56;;;7.90;39.00
74905;BME280;63465;50.862;6.220;2023-03-11T13:28:25;99424.78;;;7.48;39.64
74905;BME280;63465;50.862;6.220;2023-03-11T13:31:01;99422.84;;;7.09;41.23
74905;BME280;63465;50.862;6.220;2023-03-11T13:33:41;99424.44;;;7.36;41.76
74905;BME280;63465;50.862;6.220;2023-03-11T13:36:21;99424.13;;;7.86;39.79